岡山空港の過去48時間の天気

岡山空港 (Okayama)

現在時刻: 12/15 23:14 JST (12/15 14:14 UTC) 以下の時間は現地時間です。

過去48時間のMETAR気象情報
時間 風向 風速(m/s) 視程 気温(℃) 湿度(%) 気圧(hPa) 天気現象
15 21:00 不定 1 10km以上 3 87 1021
15 20:00 静穏 0 10km以上 3 87 1020
15 19:00 2 10km以上 3 81 1021
15 18:00 南南東 2 10km以上 5 65 1021
15 17:00 南南東 2 10km以上 6 61 1021
15 16:00 南南東 2 10km以上 7 53 1021
15 15:00 南東 2 10km以上 8 46 1021
15 14:00 東南東 2 10km以上 8 49 1021
15 13:00 不定 1 10km以上 7 53 1022
15 12:00 不定 1 10km以上 6 52 1023
15 11:00 南南東 3 10km以上 8 53 1024
15 10:00 2 10km以上 6 61 1025
15 09:00 2 10km以上 4 70 1025
15 08:00 2 10km以上 1 86 1025
15 07:00 北北西 3 10km以上 1 80 1025
15 06:15 2 10km以上 1 80 1025
14 21:00 北北西 2 10km以上 3 75 1027
14 20:00 北西 2 10km以上 3 81 1027
14 19:00 北北西 1 10km以上 3 81 1026
14 18:00 2 10km以上 3 81 1026
14 17:00 2 10km以上 3 75 1026
14 16:00 北北東 2 10km以上 4 70 1025
14 15:00 東北東 4 10km以上 5 65 1025
14 14:00 3 10km以上 5 65 1025
14 13:00 3 10km以上 5 70 1025
14 12:00 北西 3 10km以上 5 65 1026
14 11:00 不定 2 10km以上 5 61 1026
14 10:00 不定 2 10km以上 4 65 1027
14 09:00 不定 1 10km以上 3 70 1027
14 08:00 北北東 1 10km以上 1 86 1026
14 07:00 西 3 10km以上 -1 86 1025
14 06:15 西 2 10km以上 0 86 1025
RJOB 151200Z VRB01KT 9999 FEW020 SCT070 BKN120 03/01 Q1021
RJOB 151100Z 00000KT 9999 FEW020 BKN/// 03/01 Q1020
RJOB 151000Z 18003KT 150V250 9999 FEW020 BKN/// 03/M00 Q1021
RJOB 150900Z 16003KT 9999 FEW020 BKN/// 05/M01 Q1021
RJOB 150800Z 16004KT 120V180 9999 FEW025 SCT/// 06/M01 Q1021
RJOB 150700Z 15004KT 9999 FEW030 SCT/// 07/M02 Q1021
RJOB 150600Z 14004KT 040V220 9999 FEW030 08/M03 Q1021
RJOB 150500Z 12004KT 040V200 9999 FEW025 08/M02 Q1021
RJOB 150400Z VRB02KT 9999 FEW025 SCT/// 07/M02 Q1022
RJOB 150300Z VRB02KT 9999 FEW025 SCT035 06/M03 Q1023
RJOB 150200Z 15005KT 060V220 9999 FEW025 08/M01 Q1024
RJOB 150100Z 08004KT 040V160 9999 FEW025 06/M01 Q1025
RJOB 150000Z 10004KT 050V140 9999 FEW025 04/M01 Q1025
RJOB 142300Z 10003KT 070V140 9999 FEW025 01/M01 Q1025
RJOB 142200Z 34005KT 310V030 9999 FEW025 01/M02 Q1025
RJOB 142115Z 36004KT 310V050 9999 FEW025 01/M02 Q1025 RMK 1CU025 A3028
RJOB 141200Z 34003KT 9999 FEW020 BKN050 BKN/// 03/M01 Q1027
RJOB 141100Z 32003KT 9999 FEW020 BKN045 BKN/// 03/M00 Q1027
RJOB 141000Z 34002KT 9999 FEW020 SCT045 BKN/// 03/M00 Q1026
RJOB 140900Z 35003KT 300V020 9999 FEW020 BKN045 BKN/// 03/M00 Q1026
RJOB 140800Z 35003KT 290V020 9999 FEW020 SCT050 BKN/// 03/M01 Q1026
RJOB 140700Z 03004KT 350V070 9999 FEW020 SCT025 BKN035 04/M01 Q1025
RJOB 140600Z 06007KT 010V100 9999 FEW015 SCT025 BKN050 05/M01 Q1025
RJOB 140500Z 36006KT 280V080 9999 FEW015 SCT025 BKN035 05/M01 Q1025
RJOB 140400Z 01006KT 290V060 9999 FEW020 SCT035 BKN045 05/M00 Q1025
RJOB 140300Z 32006KT 250V010 9999 FEW015 BKN025 05/M01 Q1026
RJOB 140200Z VRB04KT 9999 FEW010 SCT025 05/M02 Q1026
RJOB 140100Z VRB04KT 9999 FEW020 SCT035 BKN060 04/M02 Q1027
RJOB 140000Z VRB01KT 9999 FEW020 BKN040 03/M02 Q1027
RJOB 132300Z 02002KT 9999 FEW020 BKN050 01/M01 Q1026
RJOB 132200Z 26005KT 9999 FEW020 SCT040 M01/M03 Q1025
RJOB 132115Z 27003KT 9999 FEW020 SCT040 BKN060 M00/M02 Q1025 RMK 1CU020 3CU040 5SC060 A3027